createdAt,value
2023-11-15T00:00:18.972Z,11.30
2023-11-15T00:02:48.386Z,11.20
2023-11-15T00:05:16.674Z,11.30
2023-11-15T00:07:45.346Z,11.30
2023-11-15T00:10:14.801Z,11.30
2023-11-15T00:12:44.199Z,11.30
2023-11-15T00:15:15.404Z,11.30
2023-11-15T00:17:43.826Z,11.30
2023-11-15T00:20:14.938Z,11.40
2023-11-15T00:22:43.386Z,11.40
2023-11-15T00:25:11.574Z,11.40
2023-11-15T00:27:39.653Z,11.40
2023-11-15T00:30:12.078Z,11.30
2023-11-15T00:32:41.115Z,11.30
2023-11-15T00:35:13.403Z,11.30
2023-11-15T00:37:43.465Z,11.30
2023-11-15T00:40:14.837Z,11.40
2023-11-15T00:42:43.179Z,11.40
2023-11-15T00:45:13.237Z,11.40
2023-11-15T00:47:41.514Z,11.40
2023-11-15T00:50:10.272Z,11.40
2023-11-15T00:52:38.705Z,11.50
2023-11-15T00:55:09.629Z,11.50
2023-11-15T00:57:37.702Z,11.40
2023-11-15T01:00:22.932Z,11.50
2023-11-15T01:02:52.199Z,11.50
2023-11-15T01:05:20.686Z,11.50
2023-11-15T01:07:49.006Z,11.50
2023-11-15T01:10:20.680Z,11.50
2023-11-15T01:12:49.169Z,11.50
2023-11-15T01:15:17.773Z,11.40
2023-11-15T01:17:47.915Z,11.10
2023-11-15T01:20:16.310Z,11.00
2023-11-15T01:22:44.455Z,10.90
2023-11-15T01:25:13.886Z,10.90
2023-11-15T01:27:43.739Z,11.00
2023-11-15T01:30:12.536Z,11.10
2023-11-15T01:32:41.403Z,11.10
2023-11-15T01:35:10.344Z,11.10
2023-11-15T01:37:38.771Z,11.10
2023-11-15T01:40:08.159Z,11.20
2023-11-15T01:42:36.268Z,11.20
2023-11-15T01:45:07.468Z,11.20
2023-11-15T01:47:36.568Z,11.20
2023-11-15T01:50:11.231Z,11.20
2023-11-15T01:52:40.121Z,11.20
2023-11-15T01:55:11.409Z,11.20
2023-11-15T01:57:39.971Z,11.20
2023-11-15T02:00:11.442Z,11.20
2023-11-15T02:02:40.165Z,11.20
2023-11-15T02:05:09.486Z,11.20
2023-11-15T02:07:38.752Z,11.20
2023-11-15T02:10:08.855Z,11.20
2023-11-15T02:12:36.958Z,11.30
2023-11-15T02:15:05.889Z,11.30
2023-11-15T02:17:35.479Z,11.30
2023-11-15T02:20:07.345Z,11.30
2023-11-15T02:22:36.738Z,11.30
2023-11-15T02:25:06.927Z,11.30
2023-11-15T02:27:34.944Z,11.30
2023-11-15T02:30:03.025Z,11.30
2023-11-15T02:32:31.047Z,11.30
2023-11-15T02:34:59.055Z,11.30
2023-11-15T02:37:27.046Z,11.30
2023-11-15T02:39:55.052Z,11.30
2023-11-15T02:42:24.688Z,11.30
2023-11-15T02:44:52.846Z,11.30
2023-11-15T02:47:20.973Z,11.30
2023-11-15T02:49:49.061Z,11.30
2023-11-15T02:52:17.087Z,11.30
2023-11-15T02:54:45.096Z,11.30
2023-11-15T02:57:13.118Z,11.30
2023-11-15T02:59:42.921Z,11.30
2023-11-15T03:02:11.518Z,11.30
2023-11-15T03:04:40.510Z,11.30
2023-11-15T03:07:08.498Z,11.30
2023-11-15T03:09:37.101Z,11.30
2023-11-15T03:12:05.793Z,11.30
2023-11-15T03:14:34.011Z,11.30
2023-11-15T03:17:12.492Z,11.40
2023-11-15T03:19:40.576Z,11.40
2023-11-15T03:22:08.743Z,11.40
2023-11-15T03:24:36.863Z,11.40
2023-11-15T03:27:05.947Z,11.40
2023-11-15T03:29:34.497Z,11.40
2023-11-15T03:32:03.981Z,11.30
2023-11-15T03:34:32.201Z,11.30
2023-11-15T03:37:00.253Z,11.30
2023-11-15T03:39:29.476Z,11.30
2023-11-15T03:41:58.317Z,11.30
2023-11-15T03:44:26.368Z,11.30
2023-11-15T03:46:54.430Z,11.30
2023-11-15T03:49:23.885Z,11.30
2023-11-15T03:51:51.944Z,11.30
2023-11-15T03:54:20.025Z,11.30
2023-11-15T03:56:48.277Z,11.30
2023-11-15T03:59:16.320Z,11.30
2023-11-15T04:04:15.445Z,11.30
2023-11-15T04:06:45.088Z,11.40
2023-11-15T04:09:13.088Z,11.40
2023-11-15T04:11:41.588Z,11.40
2023-11-15T04:14:09.791Z,11.40
2023-11-15T04:16:38.029Z,11.40
2023-11-15T04:19:06.196Z,11.40
2023-11-15T04:21:34.253Z,11.50
2023-11-15T04:24:03.615Z,11.50
2023-11-15T04:26:32.043Z,11.50
2023-11-15T04:29:00.064Z,11.50
2023-11-15T04:31:28.590Z,11.50
2023-11-15T04:33:56.641Z,11.50
2023-11-15T04:36:24.662Z,11.50
2023-11-15T04:38:52.874Z,11.50
2023-11-15T04:41:22.516Z,11.50
2023-11-15T04:43:50.573Z,11.50
2023-11-15T04:46:19.679Z,11.50
2023-11-15T04:48:47.797Z,11.50
2023-11-15T04:51:15.878Z,11.50
2023-11-15T04:53:43.902Z,11.50
2023-11-15T04:56:12.378Z,11.50
2023-11-15T04:58:41.850Z,11.50
2023-11-15T05:01:10.274Z,11.50
2023-11-15T05:03:38.572Z,11.50
2023-11-15T05:06:08.662Z,11.50
2023-11-15T05:08:36.753Z,11.50
2023-11-15T05:11:06.209Z,11.60
2023-11-15T05:13:34.285Z,11.60
2023-11-15T05:16:05.049Z,11.50
2023-11-15T05:18:33.190Z,11.50
2023-11-15T05:21:01.271Z,11.50
2023-11-15T05:23:30.022Z,11.50
2023-11-15T05:25:58.292Z,11.50
2023-11-15T05:28:27.044Z,11.50
2023-11-15T05:30:56.026Z,11.50
2023-11-15T05:33:25.601Z,11.50
2023-11-15T05:35:54.055Z,11.50
2023-11-15T05:38:22.397Z,11.50
2023-11-15T05:40:50.794Z,11.50
2023-11-15T05:43:18.802Z,11.50
2023-11-15T05:45:46.793Z,11.50
2023-11-15T05:48:14.867Z,11.40
2023-11-15T05:50:44.325Z,11.40
2023-11-15T05:53:12.341Z,11.40
2023-11-15T05:55:41.661Z,11.40
2023-11-15T05:58:10.667Z,11.40
2023-11-15T06:00:39.256Z,11.40
2023-11-15T06:03:08.139Z,11.40
2023-11-15T06:05:36.338Z,11.40
2023-11-15T06:08:06.217Z,11.30
2023-11-15T06:10:34.335Z,11.30
2023-11-15T06:13:02.419Z,11.30
2023-11-15T06:15:30.409Z,11.30
2023-11-15T06:17:58.491Z,11.20
2023-11-15T06:20:26.515Z,11.20
2023-11-15T06:22:54.579Z,11.20
2023-11-15T06:25:24.245Z,11.20
2023-11-15T06:27:52.321Z,11.10
2023-11-15T06:30:20.488Z,11.10
2023-11-15T06:32:49.342Z,11.10
2023-11-15T06:35:20.266Z,11.10
2023-11-15T06:37:49.510Z,11.20
2023-11-15T06:40:18.078Z,11.20
2023-11-15T06:42:47.588Z,11.10
2023-11-15T06:45:15.802Z,11.20
2023-11-15T06:47:44.034Z,11.10
2023-11-15T06:50:14.248Z,11.10
2023-11-15T06:52:42.266Z,11.00
2023-11-15T06:55:12.633Z,11.00
2023-11-15T06:57:42.748Z,11.00
2023-11-15T07:00:14.308Z,11.00
2023-11-15T07:02:43.549Z,11.10
2023-11-15T07:05:12.515Z,11.00
2023-11-15T07:07:41.073Z,11.00
2023-11-15T07:10:10.928Z,11.10
2023-11-15T07:12:41.181Z,11.10
2023-11-15T07:15:15.482Z,11.10
2023-11-15T07:17:45.789Z,11.10
2023-11-15T07:20:15.826Z,11.10
2023-11-15T07:22:44.049Z,11.10
2023-11-15T07:25:14.065Z,11.10
2023-11-15T07:27:42.307Z,11.00
2023-11-15T07:30:13.523Z,11.00
2023-11-15T07:32:41.872Z,10.90
2023-11-15T07:35:11.640Z,10.90
2023-11-15T07:37:41.260Z,10.90
2023-11-15T07:40:13.531Z,10.90
2023-11-15T07:42:42.229Z,10.80
2023-11-15T07:45:11.386Z,10.80
2023-11-15T07:47:40.848Z,10.80
2023-11-15T07:50:12.677Z,10.90
2023-11-15T07:52:41.333Z,11.00
2023-11-15T07:55:11.865Z,11.00
2023-11-15T07:57:40.015Z,11.00
2023-11-15T08:00:12.509Z,11.00
2023-11-15T08:02:42.443Z,11.00
2023-11-15T08:05:12.241Z,11.00
2023-11-15T08:07:40.269Z,11.10
2023-11-15T08:10:09.208Z,11.10
2023-11-15T08:12:38.998Z,11.10
2023-11-15T08:15:08.753Z,11.20
2023-11-15T08:17:37.937Z,11.30
2023-11-15T08:20:11.467Z,11.40
2023-11-15T08:22:41.559Z,11.40
2023-11-15T08:25:12.156Z,11.40
2023-11-15T08:27:41.884Z,11.30
2023-11-15T08:30:14.195Z,11.30
2023-11-15T08:32:43.889Z,11.30
2023-11-15T08:35:12.166Z,11.50
2023-11-15T08:37:41.810Z,11.70
2023-11-15T08:40:22.662Z,11.50
2023-11-15T08:42:56.819Z,11.40
2023-11-15T08:45:25.400Z,11.40
2023-11-15T08:47:58.607Z,11.40
2023-11-15T08:50:28.445Z,11.60
2023-11-15T08:52:59.128Z,11.80
2023-11-15T08:55:27.433Z,11.70
2023-11-15T08:57:57.458Z,11.70
2023-11-15T09:00:25.808Z,11.60
2023-11-15T09:02:54.055Z,11.70
2023-11-15T09:05:24.302Z,11.80
2023-11-15T09:07:52.448Z,11.90
2023-11-15T09:10:22.973Z,11.90
2023-11-15T09:12:53.516Z,12.00
2023-11-15T09:15:22.135Z,11.90
2023-11-15T09:17:51.901Z,11.70
2023-11-15T09:20:22.956Z,11.70
2023-11-15T09:22:54.989Z,11.70
2023-11-15T09:25:27.953Z,11.70
2023-11-15T09:27:59.194Z,11.70
2023-11-15T09:30:28.411Z,11.80
2023-11-15T09:32:56.848Z,11.80
2023-11-15T09:35:29.411Z,11.90
2023-11-15T09:37:59.508Z,12.00
2023-11-15T09:40:30.129Z,12.10
2023-11-15T09:43:01.580Z,12.20
2023-11-15T09:45:31.239Z,12.40
2023-11-15T09:48:02.373Z,12.30
2023-11-15T09:50:34.636Z,12.30
2023-11-15T09:53:07.029Z,12.40
2023-11-15T09:55:36.582Z,12.40
2023-11-15T09:58:05.159Z,12.50
2023-11-15T10:00:33.717Z,12.60
2023-11-15T10:03:02.866Z,12.60
2023-11-15T10:05:33.376Z,12.60
2023-11-15T10:08:11.960Z,12.70
2023-11-15T10:10:44.409Z,12.70
2023-11-15T10:13:19.867Z,12.70
2023-11-15T10:15:48.388Z,12.90
2023-11-15T10:18:20.541Z,13.00
2023-11-15T10:20:48.804Z,13.00
2023-11-15T10:23:30.143Z,13.00
2023-11-15T10:26:01.462Z,13.00
2023-11-15T10:28:33.929Z,13.00
2023-11-15T10:31:04.561Z,12.80
2023-11-15T10:33:33.623Z,12.80
2023-11-15T10:36:18.227Z,12.70
2023-11-15T10:38:48.070Z,13.00
2023-11-15T10:41:20.399Z,13.20
2023-11-15T10:43:49.952Z,13.30
2023-11-15T10:46:20.080Z,13.30
2023-11-15T10:48:50.932Z,13.30
2023-11-15T10:51:23.710Z,13.30
2023-11-15T10:53:52.530Z,13.50
2023-11-15T10:56:23.655Z,13.80
2023-11-15T10:58:54.445Z,13.60
2023-11-15T11:01:24.491Z,13.80
2023-11-15T11:03:57.194Z,14.10
2023-11-15T11:06:33.263Z,14.20
2023-11-15T11:09:11.545Z,14.20
2023-11-15T11:11:47.582Z,14.20
2023-11-15T11:14:22.329Z,13.70
2023-11-15T11:16:50.791Z,13.40
2023-11-15T11:19:23.428Z,13.40
2023-11-15T11:22:09.926Z,13.20
2023-11-15T11:24:43.870Z,13.10
2023-11-15T11:27:34.915Z,13.00
2023-11-15T11:30:22.241Z,12.90
2023-11-15T11:32:52.164Z,12.60
2023-11-15T11:35:35.724Z,12.30
2023-11-15T11:38:05.345Z,12.30
2023-11-15T11:40:40.153Z,12.30
2023-11-15T11:43:23.525Z,12.30
2023-11-15T11:45:55.272Z,12.30
2023-11-15T11:48:25.347Z,12.20
2023-11-15T11:51:06.493Z,12.20
2023-11-15T11:53:39.410Z,12.30
2023-11-15T11:56:11.556Z,12.20
2023-11-15T11:58:41.576Z,12.30
2023-11-15T12:01:11.669Z,12.20
2023-11-15T12:03:46.716Z,12.30
2023-11-15T12:06:15.194Z,12.30
2023-11-15T12:08:50.636Z,12.40
2023-11-15T12:11:27.124Z,12.30
2023-11-15T12:13:58.214Z,12.20
2023-11-15T12:16:28.518Z,12.10
2023-11-15T12:19:04.034Z,12.10
2023-11-15T12:21:34.399Z,12.10
2023-11-15T12:24:06.072Z,12.30
2023-11-15T12:26:43.506Z,12.60
2023-11-15T12:29:36.309Z,12.80
2023-11-15T12:32:05.751Z,12.70
2023-11-15T12:34:34.258Z,12.60
2023-11-15T12:37:02.489Z,12.50
2023-11-15T12:39:37.837Z,12.50
2023-11-15T12:42:06.624Z,12.70
2023-11-15T12:44:45.931Z,13.00
2023-11-15T12:47:17.193Z,13.20
2023-11-15T12:49:45.301Z,13.20
2023-11-15T12:52:13.367Z,13.30
2023-11-15T12:54:55.291Z,13.50
2023-11-15T12:57:23.366Z,13.60
2023-11-15T12:59:53.241Z,13.60
2023-11-15T13:02:25.914Z,13.60
2023-11-15T13:04:55.001Z,13.70
2023-11-15T13:07:23.180Z,13.60
2023-11-15T13:09:50.263Z,13.70
2023-11-15T13:12:25.786Z,13.70
2023-11-15T13:14:56.235Z,13.40
2023-11-15T13:17:25.050Z,13.30
2023-11-15T13:19:53.279Z,13.10
2023-11-15T13:22:21.316Z,12.90
2023-11-15T13:24:51.148Z,12.70
2023-11-15T13:27:21.816Z,12.80
2023-11-15T13:29:51.768Z,12.70
2023-11-15T13:32:21.490Z,12.60
2023-11-15T13:34:52.039Z,12.50
2023-11-15T13:37:20.655Z,12.40
2023-11-15T13:39:49.063Z,12.30
2023-11-15T13:42:17.162Z,12.20
2023-11-15T13:44:46.237Z,12.10
2023-11-15T13:47:15.128Z,12.10
2023-11-15T13:49:48.097Z,12.20
2023-11-15T13:52:17.125Z,12.20
2023-11-15T13:54:45.934Z,12.20
2023-11-15T13:57:14.558Z,12.20
2023-11-15T13:59:42.846Z,12.30
2023-11-15T14:02:10.955Z,12.30
2023-11-15T14:04:39.019Z,12.40
2023-11-15T14:07:08.494Z,12.60
2023-11-15T14:09:37.515Z,12.70
2023-11-15T14:12:07.193Z,12.90
2023-11-15T14:14:35.311Z,13.00
2023-11-15T14:17:08.214Z,13.10
2023-11-15T14:19:38.151Z,13.10
2023-11-15T14:22:07.162Z,13.00
2023-11-15T14:24:36.840Z,13.10
2023-11-15T14:27:05.697Z,13.00
2023-11-15T14:29:34.027Z,13.00
2023-11-15T14:32:02.174Z,12.80
2023-11-15T14:34:30.285Z,12.80
2023-11-15T14:36:58.706Z,12.60
2023-11-15T14:39:27.961Z,12.50
2023-11-15T14:42:00.266Z,12.40
2023-11-15T14:44:29.959Z,12.20
2023-11-15T14:46:58.757Z,12.10
2023-11-15T14:49:26.872Z,12.10
2023-11-15T14:52:08.405Z,12.10
2023-11-15T14:54:41.742Z,12.10
2023-11-15T14:57:12.028Z,12.10
2023-11-15T14:59:44.697Z,12.00
2023-11-15T15:02:13.259Z,11.90
2023-11-15T15:04:45.543Z,11.80
2023-11-15T15:07:15.625Z,11.80
2023-11-15T15:09:43.708Z,11.70
2023-11-15T15:12:14.224Z,11.60
2023-11-15T15:14:42.699Z,11.60
2023-11-15T15:17:21.194Z,11.50
2023-11-15T15:19:54.179Z,11.50
2023-11-15T15:22:23.387Z,11.40
2023-11-15T15:24:51.686Z,11.40
2023-11-15T15:27:22.777Z,11.30
2023-11-15T15:29:52.099Z,11.30
2023-11-15T15:32:20.420Z,11.30
2023-11-15T15:34:48.514Z,11.30
2023-11-15T15:37:16.619Z,11.20
2023-11-15T15:39:44.952Z,11.10
2023-11-15T15:42:13.207Z,11.20
2023-11-15T15:44:42.829Z,11.10
2023-11-15T15:47:10.958Z,11.30
2023-11-15T15:49:46.699Z,11.30
2023-11-15T15:52:15.756Z,11.10
2023-11-15T15:54:44.425Z,11.00
2023-11-15T15:57:12.642Z,11.10
2023-11-15T15:59:47.292Z,11.00
2023-11-15T16:02:15.350Z,11.00
2023-11-15T16:04:44.364Z,10.90
2023-11-15T16:07:12.433Z,10.90
2023-11-15T16:09:42.525Z,11.00
2023-11-15T16:12:10.916Z,11.00
2023-11-15T16:14:39.053Z,11.00
2023-11-15T16:17:08.971Z,10.90
2023-11-15T16:19:37.098Z,10.90
2023-11-15T16:22:05.296Z,10.90
2023-11-15T16:24:33.345Z,10.90
2023-11-15T16:27:04.467Z,10.90
2023-11-15T16:29:34.371Z,10.80
2023-11-15T16:32:02.838Z,10.80
2023-11-15T16:34:32.270Z,10.80
2023-11-15T16:37:00.319Z,10.80
2023-11-15T16:39:28.587Z,10.80
2023-11-15T16:41:56.808Z,10.80
2023-11-15T16:44:26.892Z,10.80
2023-11-15T16:46:54.969Z,10.70
2023-11-15T16:49:23.476Z,10.70
2023-11-15T16:51:53.642Z,10.70
2023-11-15T16:54:22.995Z,10.60
2023-11-15T16:56:51.392Z,10.70
2023-11-15T16:59:19.570Z,10.60
2023-11-15T17:01:48.244Z,10.60
2023-11-15T17:04:16.742Z,10.60
2023-11-15T17:06:44.975Z,10.50
2023-11-15T17:09:15.661Z,10.50
2023-11-15T17:11:43.822Z,10.60
2023-11-15T17:14:14.155Z,10.60
2023-11-15T17:16:42.369Z,10.60
2023-11-15T17:19:10.360Z,10.60
2023-11-15T17:21:42.726Z,10.60
2023-11-15T17:24:12.197Z,10.60
2023-11-15T17:26:46.071Z,10.60
2023-11-15T17:29:15.278Z,10.60
2023-11-15T17:31:45.169Z,10.70
2023-11-15T17:34:13.947Z,10.60
2023-11-15T17:36:42.300Z,10.60
2023-11-15T17:39:13.151Z,10.60
2023-11-15T17:41:43.378Z,10.60
2023-11-15T17:44:15.808Z,10.60
2023-11-15T17:46:44.133Z,10.60
2023-11-15T17:49:12.569Z,10.60
2023-11-15T17:51:44.505Z,10.60
2023-11-15T17:54:12.867Z,10.60
2023-11-15T17:56:42.717Z,10.60
2023-11-15T17:59:11.062Z,10.60
2023-11-15T18:01:39.958Z,10.60
2023-11-15T18:04:09.807Z,10.60
2023-11-15T18:06:38.436Z,10.60
2023-11-15T18:09:08.358Z,10.60
2023-11-15T18:11:37.224Z,10.60
2023-11-15T18:14:07.215Z,10.60
2023-11-15T18:16:35.554Z,10.60
2023-11-15T18:19:06.438Z,10.60
2023-11-15T18:21:34.750Z,10.60
2023-11-15T18:24:03.110Z,10.60
2023-11-15T18:26:32.927Z,10.60
2023-11-15T18:29:02.151Z,10.60
2023-11-15T18:31:31.975Z,10.60
2023-11-15T18:34:00.662Z,10.60
2023-11-15T18:36:30.832Z,10.60
2023-11-15T18:38:59.163Z,10.50
2023-11-15T18:41:27.846Z,10.50
2023-11-15T18:43:57.940Z,10.50
2023-11-15T18:46:27.690Z,10.50
2023-11-15T18:48:57.462Z,10.50
2023-11-15T18:51:29.442Z,10.50
2023-11-15T18:53:58.190Z,10.50
2023-11-15T18:56:27.398Z,10.40
2023-11-15T18:58:55.943Z,10.40
2023-11-15T19:01:24.062Z,10.40
2023-11-15T19:03:52.388Z,10.40
2023-11-15T19:06:22.975Z,10.30
2023-11-15T19:08:51.203Z,10.30
2023-11-15T19:11:18.312Z,10.40
2023-11-15T19:13:47.743Z,10.40
2023-11-15T19:16:19.807Z,10.40
2023-11-15T19:18:47.945Z,10.40
2023-11-15T19:21:16.506Z,10.40
2023-11-15T19:23:46.698Z,10.40
2023-11-15T19:26:15.415Z,10.40
2023-11-15T19:28:43.680Z,10.40
2023-11-15T19:31:11.758Z,10.40
2023-11-15T19:33:40.772Z,10.40
2023-11-15T19:36:09.646Z,10.40
2023-11-15T19:38:38.060Z,10.40
2023-11-15T19:41:09.807Z,10.40
2023-11-15T19:43:37.930Z,10.40
2023-11-15T19:46:07.106Z,10.40
2023-11-15T19:48:35.811Z,10.40
2023-11-15T19:51:03.910Z,10.40
2023-11-15T19:53:31.989Z,10.50
2023-11-15T19:56:00.812Z,10.50
2023-11-15T19:58:32.045Z,10.50
2023-11-15T20:01:03.443Z,10.50
2023-11-15T20:03:31.714Z,10.50
2023-11-15T20:05:59.764Z,10.50
2023-11-15T20:08:27.845Z,10.50
2023-11-15T20:10:55.965Z,10.50
2023-11-15T20:13:24.379Z,10.50
2023-11-15T20:15:54.605Z,10.50
2023-11-15T20:18:22.703Z,10.50
2023-11-15T20:20:51.156Z,10.50
2023-11-15T20:23:19.799Z,10.50
2023-11-15T20:25:48.726Z,10.50
2023-11-15T20:28:17.640Z,10.50
2023-11-15T20:30:46.963Z,10.50
2023-11-15T20:33:16.549Z,10.60
2023-11-15T20:35:44.591Z,10.50
2023-11-15T20:38:12.788Z,10.50
2023-11-15T20:40:40.791Z,10.50
2023-11-15T20:43:09.928Z,10.50
2023-11-15T20:45:39.286Z,10.50
2023-11-15T20:48:20.123Z,10.50
2023-11-15T20:50:48.684Z,10.50
2023-11-15T20:53:18.001Z,10.50
2023-11-15T20:55:47.272Z,10.50
2023-11-15T20:58:16.141Z,10.50
2023-11-15T21:00:44.347Z,10.50
2023-11-15T21:03:13.989Z,10.40
2023-11-15T21:05:43.800Z,10.40
2023-11-15T21:08:14.096Z,10.40
2023-11-15T21:10:43.325Z,10.40
2023-11-15T21:13:11.970Z,10.40
2023-11-15T21:15:40.333Z,10.40
2023-11-15T21:18:10.277Z,10.40
2023-11-15T21:20:40.903Z,10.40
2023-11-15T21:23:10.309Z,10.40
2023-11-15T21:25:38.528Z,10.40
2023-11-15T21:28:07.463Z,10.40
2023-11-15T21:30:38.080Z,10.40
2023-11-15T21:33:11.072Z,10.40
2023-11-15T21:35:39.615Z,10.40
2023-11-15T21:38:09.054Z,10.50
2023-11-15T21:40:39.133Z,10.40
2023-11-15T21:43:07.341Z,10.50
2023-11-15T21:45:35.452Z,10.50
2023-11-15T21:48:04.147Z,10.50
2023-11-15T21:50:32.642Z,10.50
2023-11-15T21:53:04.397Z,10.50
2023-11-15T21:55:32.906Z,10.60
2023-11-15T21:58:08.192Z,10.50
2023-11-15T22:00:36.689Z,10.60
2023-11-15T22:03:04.791Z,10.60
2023-11-15T22:05:32.945Z,10.60
2023-11-15T22:08:02.235Z,10.60
2023-11-15T22:10:30.541Z,10.60
2023-11-15T22:12:58.665Z,10.60
2023-11-15T22:15:29.447Z,10.60
2023-11-15T22:17:57.688Z,10.70
2023-11-15T22:20:25.801Z,10.70
2023-11-15T22:22:54.048Z,10.70
2023-11-15T22:25:22.291Z,10.70
2023-11-15T22:27:50.323Z,10.70
2023-11-15T22:30:18.329Z,10.70
2023-11-15T22:32:48.139Z,10.70
2023-11-15T22:35:16.611Z,10.70
2023-11-15T22:37:44.874Z,10.70
2023-11-15T22:40:13.994Z,10.70
2023-11-15T22:42:42.327Z,10.70
2023-11-15T22:45:11.247Z,10.70
2023-11-15T22:47:39.412Z,10.70
2023-11-15T22:50:12.268Z,10.70
2023-11-15T22:52:40.640Z,10.70
2023-11-15T22:55:09.853Z,10.70
2023-11-15T22:57:37.919Z,10.70
2023-11-15T23:00:07.489Z,10.70
2023-11-15T23:02:36.318Z,10.70
2023-11-15T23:05:05.922Z,10.70
2023-11-15T23:07:36.322Z,10.70
2023-11-15T23:10:05.001Z,10.60
2023-11-15T23:12:33.230Z,10.70
2023-11-15T23:15:01.379Z,10.70
2023-11-15T23:17:29.976Z,10.70
2023-11-15T23:19:58.011Z,10.60
2023-11-15T23:22:26.007Z,10.60
2023-11-15T23:24:56.000Z,10.60
2023-11-15T23:27:25.432Z,10.60
2023-11-15T23:32:21.800Z,10.60
2023-11-15T23:34:49.963Z,10.60
2023-11-15T23:37:17.980Z,10.60
2023-11-15T23:39:48.632Z,10.60
2023-11-15T23:42:23.582Z,10.60
2023-11-15T23:44:52.028Z,10.60
2023-11-15T23:47:20.972Z,10.60
2023-11-15T23:49:49.160Z,10.50
2023-11-15T23:52:18.981Z,10.60
2023-11-15T23:54:47.508Z,10.60
2023-11-15T23:57:17.328Z,10.50
2023-11-15T23:59:45.361Z,10.50
